Time;durP1;ratioP1;P1;durP2;ratioP2;P2;SDS_P1;SDS_P2;PMS_P1;PMS_P2;Temp;Humidity;BMP_temperature;BMP_pressure;BME280_temperature;BME280_humidity;BME280_pressure;Samples;Min_cycle;Max_cycle;Signal;HPM_P1;HPM_P2
2022/02/06 00:00:10;;;;;;;6.07;2.20;;;6.90;99.90;;;;;;5075342;28;20577;-39
2022/02/06 00:02:41;;;;;;;3.33;1.67;;;6.60;99.90;;;;;;5086130;28;20189;-39
2022/02/06 00:05:07;;;;;;;3.17;1.93;;;6.80;99.90;;;;;;5086142;28;20487;-39
2022/02/06 00:07:32;;;;;;;5.87;1.93;;;6.70;99.90;;;;;;5087016;28;20410;-40
2022/02/06 00:09:58;;;;;;;4.70;2.07;;;6.90;99.90;;;;;;5086742;28;20411;-39
2022/02/06 00:12:24;;;;;;;8.00;3.60;;;6.80;99.90;;;;;;5087192;28;20673;-39
2022/02/06 00:14:50;;;;;;;3.40;1.87;;;6.90;99.90;;;;;;5078377;28;20267;-39
2022/02/06 00:17:15;;;;;;;5.63;2.10;;;6.80;99.90;;;;;;5083784;28;20419;-40
2022/02/06 00:19:43;;;;;;;6.07;1.80;;;6.70;99.90;;;;;;5085895;28;20546;-39
2022/02/06 00:22:13;;;;;;;4.53;1.97;;;6.70;99.90;;;;;;5087026;28;20624;-38
2022/02/06 00:27:09;;;;;;;5.10;2.50;;;6.90;99.90;;;;;;5085791;28;20667;-39
2022/02/06 00:32:20;;;;;;;3.63;1.90;;;6.70;99.90;;;;;;5085393;28;20454;-39
2022/02/06 00:35:16;;;;;;;5.40;2.20;;;6.60;99.90;;;;;;5082274;28;20424;-39
2022/02/06 00:40:18;;;;;;;7.40;2.10;;;6.70;99.90;;;;;;5086312;28;20622;-39
2022/02/06 00:42:44;;;;;;;5.50;2.10;;;6.70;99.90;;;;;;5086848;28;20434;-39
2022/02/06 00:45:09;;;;;;;3.63;2.30;;;6.70;99.90;;;;;;5078294;28;20524;-39
2022/02/06 00:47:37;;;;;;;4.30;2.57;;;6.60;99.90;;;;;;5085744;28;20188;-40
2022/02/06 00:50:03;;;;;;;6.30;2.63;;;6.70;99.90;;;;;;5085604;28;20168;-39
2022/02/06 00:52:37;;;;;;;5.60;4.13;;;6.70;99.90;;;;;;5086684;28;20423;-39
2022/02/06 00:55:03;;;;;;;8.53;2.33;;;6.60;99.90;;;;;;5086201;28;20419;-41
2022/02/06 00:57:28;;;;;;;5.50;2.60;;;6.80;99.90;;;;;;5086461;28;20422;-39
2022/02/06 00:59:54;;;;;;;4.60;2.73;;;6.70;99.90;;;;;;5080691;28;20427;-39
2022/02/06 01:02:20;;;;;;;6.00;2.20;;;6.70;99.90;;;;;;5087348;28;20180;-40
2022/02/06 01:04:45;;;;;;;7.00;3.20;;;6.60;99.90;;;;;;5091227;28;20195;-39
2022/02/06 01:07:11;;;;;;;5.23;3.03;;;6.70;99.90;;;;;;5090318;28;20203;-40
2022/02/06 01:09:37;;;;;;;4.10;2.63;;;6.80;99.90;;;;;;5089513;28;20188;-39
2022/02/06 01:12:03;;;;;;;5.80;3.13;;;6.70;99.90;;;;;;5090158;28;20239;-39
2022/02/06 01:17:19;;;;;;;7.50;3.10;;;6.60;99.90;;;;;;5085055;28;20501;-39
2022/02/06 01:19:59;;;;;;;5.47;2.97;;;6.90;99.90;;;;;;5082907;28;20433;-42
2022/02/06 01:22:27;;;;;;;5.10;2.60;;;6.90;99.90;;;;;;5090265;28;20799;-39
2022/02/06 01:25:02;;;;;;;8.30;2.60;;;6.80;99.90;;;;;;5090210;28;20944;-39
2022/02/06 01:27:38;;;;;;;7.43;2.60;;;6.90;99.90;;;;;;5089995;28;20425;-39
2022/02/06 01:30:18;;;;;;;6.73;2.97;;;6.90;99.90;;;;;;5083229;28;20441;-41
2022/02/06 01:32:55;;;;;;;7.40;2.60;;;6.90;99.90;;;;;;5089726;28;20422;-39
2022/02/06 01:35:30;;;;;;;7.87;2.27;;;6.80;99.90;;;;;;5089978;28;20949;-40
2022/02/06 01:38:11;;;;;;;10.37;2.77;;;6.90;99.90;;;;;;5089731;28;20441;-39
2022/02/06 01:40:54;;;;;;;3.70;2.33;;;6.90;99.90;;;;;;5078322;28;20474;-40
2022/02/06 01:43:26;;;;;;;11.93;2.90;;;6.90;99.90;;;;;;5089736;28;20700;-40
2022/02/06 02:08:00;;;;;;;3.00;2.57;;;7.00;99.90;;;;;;5089413;28;20503;-41
2022/02/06 02:13:26;;;;;;;4.03;3.03;;;7.10;99.90;;;;;;5089168;28;20418;-40
2022/02/06 02:23:54;;;;;;;4.97;2.93;;;6.90;99.90;;;;;;5087786;28;20462;-39
2022/02/06 02:42:56;;;;;;;5.43;2.90;;;6.90;99.90;;;;;;5088953;28;20425;-39
2022/02/06 02:47:48;;;;;;;7.33;3.10;;;7.00;99.90;;;;;;5082408;28;20557;-39
2022/02/06 02:50:21;;;;;;;4.80;3.07;;;7.10;99.90;;;;;;5087998;28;20500;-39
2022/02/06 02:53:26;;;;;;;6.47;3.50;;;6.90;99.90;;;;;;5088627;28;20423;-42
2022/02/06 03:03:15;;;;;;;6.63;2.93;;;6.80;99.90;;;;;;5083351;28;20471;-40
2022/02/06 03:05:42;;;;;;;9.50;3.20;;;6.90;99.90;;;;;;5088001;28;20525;-42
2022/02/06 03:08:09;;;;;;;6.97;3.13;;;6.90;99.90;;;;;;5079954;28;20439;-40
2022/02/06 03:10:36;;;;;;;6.70;3.87;;;6.90;99.90;;;;;;5087189;28;20978;-41
2022/02/06 03:13:06;;;;;;;8.20;3.10;;;6.90;99.90;;;;;;5088454;28;20863;-41
2022/02/06 03:15:42;;;;;;;9.40;3.57;;;7.00;99.90;;;;;;5082721;28;20447;-41
2022/02/06 03:18:17;;;;;;;4.30;2.80;;;7.00;99.90;;;;;;5083265;28;20433;-40
2022/02/06 03:20:43;;;;;;;8.57;3.27;;;7.10;99.90;;;;;;5085649;28;20554;-40
2022/02/06 03:23:11;;;;;;;6.57;3.30;;;7.00;99.90;;;;;;5087803;28;20449;-40
2022/02/06 03:25:46;;;;;;;9.03;3.20;;;7.10;99.90;;;;;;5087082;28;20429;-40
2022/02/06 03:28:12;;;;;;;7.77;2.93;;;6.80;99.90;;;;;;5087643;28;20859;-41
2022/02/06 03:30:38;;;;;;;7.43;3.47;;;6.90;99.90;;;;;;5080529;28;20810;-40
2022/02/06 03:33:03;;;;;;;11.23;3.43;;;7.10;99.90;;;;;;5082119;28;20423;-39
2022/02/06 03:35:29;;;;;;;4.00;2.70;;;7.00;99.90;;;;;;5087731;28;20192;-39
2022/02/06 03:37:55;;;;;;;5.67;3.27;;;7.00;99.90;;;;;;5087765;28;20192;-39
2022/02/06 03:40:25;;;;;;;6.80;2.90;;;7.10;99.90;;;;;;5087235;28;20193;-40
2022/02/06 03:43:16;;;;;;;5.37;3.10;;;7.00;99.90;;;;;;5087534;28;20672;-40
2022/02/06 03:45:47;;;;;;;4.70;2.73;;;6.90;99.90;;;;;;5083411;28;21146;-41
2022/02/06 03:48:31;;;;;;;5.90;3.50;;;7.00;99.90;;;;;;5083721;28;20425;-41
2022/02/06 03:51:04;;;;;;;7.13;3.07;;;7.00;99.90;;;;;;5081315;28;20470;-39
2022/02/06 03:53:30;;;;;;;4.97;3.20;;;7.00;99.90;;;;;;5087214;28;20433;-39
2022/02/06 03:55:58;;;;;;;7.27;3.83;;;7.00;99.90;;;;;;5087507;28;20442;-40
2022/02/06 03:58:23;;;;;;;6.63;2.83;;;7.30;99.90;;;;;;5086942;28;20188;-40
2022/02/06 04:00:49;;;;;;;5.40;3.03;;;7.10;99.90;;;;;;5081678;28;20443;-40
2022/02/06 04:03:15;;;;;;;5.30;2.77;;;6.90;99.90;;;;;;5084778;28;20189;-39
2022/02/06 04:05:46;;;;;;;7.37;2.93;;;7.00;99.90;;;;;;5087129;28;20267;-40
2022/02/06 04:08:18;;;;;;;10.80;3.60;;;7.00;99.90;;;;;;5077704;28;20658;-40
2022/02/06 04:10:50;;;;;;;6.70;3.40;;;6.90;99.90;;;;;;5083902;28;20465;-40
2022/02/06 04:13:20;;;;;;;5.23;2.83;;;7.00;99.90;;;;;;5087331;28;20792;-39
2022/02/06 04:15:49;;;;;;;7.40;3.30;;;7.30;99.90;;;;;;5082445;28;20493;-41
2022/02/06 04:18:21;;;;;;;6.70;3.00;;;7.10;99.90;;;;;;5083171;28;20461;-42
2022/02/06 04:20:46;;;;;;;4.60;2.80;;;6.90;99.90;;;;;;5084199;28;20418;-41
2022/02/06 04:23:13;;;;;;;7.03;3.07;;;7.10;99.90;;;;;;5086732;28;20461;-39
2022/02/06 04:25:39;;;;;;;8.10;2.60;;;7.20;99.90;;;;;;5086895;28;20601;-40
2022/02/06 04:28:05;;;;;;;5.77;2.90;;;6.90;99.90;;;;;;5087149;28;20453;-40
2022/02/06 04:30:31;;;;;;;5.30;2.90;;;7.00;99.90;;;;;;5081973;28;20697;-40
2022/02/06 04:32:56;;;;;;;3.70;2.73;;;7.20;99.90;;;;;;5083489;28;20177;-40
2022/02/06 04:35:26;;;;;;;6.90;2.40;;;7.00;99.90;;;;;;5086740;28;20419;-41
2022/02/06 04:41:13;;;;;;;3.07;2.40;;;7.00;99.90;;;;;;5086349;28;20446;-40
2022/02/06 04:48:57;;;;;;;3.60;2.30;;;7.10;99.90;;;;;;5078836;28;20764;-40
2022/02/06 05:11:36;;;;;;;6.20;3.17;;;7.10;99.90;;;;;;5086839;28;20434;-39
2022/02/06 05:14:11;;;;;;;3.40;2.87;;;7.10;99.90;;;;;;5062897;28;20437;-41
2022/02/06 05:16:15;;;;;;;4.50;3.13;;;7.20;99.90;;;;;;5063294;28;20503;-40
2022/02/06 05:33:58;;;;;;;4.73;2.77;;;7.20;99.90;;;;;;5082793;28;20410;-40
2022/02/06 05:36:24;;;;;;;7.20;3.10;;;7.10;99.90;;;;;;5087154;28;20180;-41
2022/02/06 05:38:49;;;;;;;4.07;3.13;;;7.10;99.90;;;;;;5087091;28;20426;-40
2022/02/06 05:41:16;;;;;;;3.70;3.40;;;7.40;99.90;;;;;;5086641;28;20935;-41
2022/02/06 05:43:41;;;;;;;4.50;2.80;;;7.30;99.90;;;;;;5086760;28;20192;-40
2022/02/06 05:46:07;;;;;;;4.80;2.77;;;7.30;99.90;;;;;;5087627;28;20487;-39
2022/02/06 05:48:33;;;;;;;5.53;3.07;;;7.10;99.90;;;;;;5081055;28;20237;-41
2022/02/06 05:50:59;;;;;;;4.97;3.30;;;7.20;99.90;;;;;;5089665;28;20219;-42
2022/02/06 05:53:25;;;;;;;3.90;2.60;;;7.20;99.90;;;;;;5090469;28;20178;-40
2022/02/06 05:55:51;;;;;;;5.40;3.10;;;7.20;99.90;;;;;;5090458;28;20520;-40
2022/02/06 05:58:16;;;;;;;3.83;3.33;;;7.10;99.90;;;;;;5090483;28;20243;-40
2022/02/06 06:00:42;;;;;;;4.67;3.20;;;7.10;99.90;;;;;;5089890;28;20437;-39
2022/02/06 06:03:08;;;;;;;6.53;2.43;;;7.30;99.90;;;;;;5078640;28;20192;-40
2022/02/06 06:05:35;;;;;;;4.47;3.03;;;7.20;99.90;;;;;;5090023;28;20184;-40
2022/02/06 06:08:01;;;;;;;3.90;2.90;;;7.00;99.90;;;;;;5090347;28;20614;-42
2022/02/06 06:10:27;;;;;;;7.13;2.80;;;7.20;99.90;;;;;;5089762;28;20505;-41
2022/02/06 06:12:52;;;;;;;3.87;2.80;;;7.50;99.90;;;;;;5090199;28;20464;-41
2022/02/06 06:15:18;;;;;;;3.97;2.60;;;7.00;99.90;;;;;;5089989;28;20192;-40
2022/02/06 06:17:45;;;;;;;4.87;2.97;;;7.10;99.90;;;;;;5081411;28;20717;-40
2022/02/06 06:20:14;;;;;;;3.93;3.23;;;7.10;99.90;;;;;;5088948;28;20215;-40
2022/02/06 06:22:40;;;;;;;5.10;2.53;;;7.20;99.90;;;;;;5090365;28;20513;-40
2022/02/06 06:25:07;;;;;;;5.07;2.70;;;7.40;99.90;;;;;;5088351;28;20419;-40
2022/02/06 06:27:33;;;;;;;5.23;2.70;;;7.10;99.90;;;;;;5090276;28;20509;-46
2022/02/06 06:29:59;;;;;;;4.53;2.97;;;7.10;99.90;;;;;;5089562;28;20505;-42
2022/02/06 06:32:25;;;;;;;5.73;3.80;;;7.20;99.90;;;;;;5081527;28;21064;-41
2022/02/06 06:34:52;;;;;;;3.87;2.50;;;7.00;99.90;;;;;;5089475;28;20864;-40
2022/02/06 06:37:19;;;;;;;3.30;2.63;;;7.10;99.90;;;;;;5089974;28;20267;-40
2022/02/06 06:39:47;;;;;;;3.90;2.70;;;7.20;99.90;;;;;;5088836;28;20423;-40
2022/02/06 06:42:14;;;;;;;3.73;2.87;;;7.20;99.90;;;;;;5089811;28;20427;-40
2022/02/06 06:44:40;;;;;;;3.20;2.57;;;7.00;99.90;;;;;;5088246;28;20702;-41
2022/02/06 06:47:07;;;;;;;4.07;2.80;;;7.20;99.90;;;;;;5086580;28;20434;-40
2022/02/06 06:49:34;;;;;;;6.53;3.20;;;7.30;99.90;;;;;;5084892;28;20426;-39
2022/02/06 06:52:00;;;;;;;4.90;2.60;;;7.50;99.90;;;;;;5089306;28;20504;-40
2022/02/06 06:54:34;;;;;;;5.40;2.47;;;7.30;99.90;;;;;;5089313;28;20414;-40
2022/02/06 06:57:22;;;;;;;2.63;2.03;;;7.40;99.90;;;;;;5087903;28;20520;-40
2022/02/06 07:04:54;;;;;;;4.43;2.40;;;7.40;99.90;;;;;;5081675;28;20487;-42
2022/02/06 07:07:20;;;;;;;3.80;2.60;;;7.40;99.90;;;;;;5086704;28;20526;-40
2022/02/06 07:09:46;;;;;;;2.87;2.30;;;7.30;99.90;;;;;;5077309;28;20513;-40
2022/02/06 07:12:15;;;;;;;3.87;2.17;;;7.30;99.90;;;;;;5088236;28;20216;-42
2022/02/06 07:14:41;;;;;;;4.07;2.60;;;7.50;99.90;;;;;;5087738;28;20279;-42
2022/02/06 07:17:07;;;;;;;2.80;2.53;;;7.40;99.90;;;;;;5083467;28;20431;-40
2022/02/06 07:19:33;;;;;;;4.83;2.50;;;7.40;99.90;;;;;;5079115;28;20530;-39
2022/02/06 07:22:00;;;;;;;4.30;2.80;;;7.50;99.90;;;;;;5088680;28;20556;-40
2022/02/06 07:24:27;;;;;;;4.17;2.17;;;7.40;99.90;;;;;;5087342;28;20337;-44
2022/02/06 07:26:58;;;;;;;4.03;2.63;;;7.20;99.90;;;;;;5088500;28;20442;-40
2022/02/06 07:29:24;;;;;;;4.90;2.67;;;7.30;99.90;;;;;;5088719;28;20458;-44
2022/02/06 07:31:52;;;;;;;3.00;2.70;;;7.50;99.90;;;;;;5084010;28;20505;-40
2022/02/06 07:34:18;;;;;;;5.27;2.77;;;7.30;99.90;;;;;;5081629;28;20211;-40
2022/02/06 07:36:44;;;;;;;2.30;2.10;;;7.40;99.90;;;;;;5088483;28;20442;-41
2022/02/06 07:39:10;;;;;;;3.00;2.53;;;7.40;99.90;;;;;;5088288;28;20184;-40
2022/02/06 07:41:35;;;;;;;4.57;2.90;;;7.30;99.90;;;;;;5087823;28;20231;-39
2022/02/06 07:44:01;;;;;;;4.60;2.70;;;7.30;99.90;;;;;;5088465;28;20363;-40
2022/02/06 07:46:34;;;;;;;3.67;2.67;;;7.60;99.90;;;;;;5088613;28;20192;-39
2022/02/06 07:49:02;;;;;;;3.40;2.23;;;7.40;99.90;;;;;;5077469;28;20191;-40
2022/02/06 07:51:28;;;;;;;4.03;3.13;;;7.60;99.90;;;;;;5087450;28;20477;-41
2022/02/06 07:53:54;;;;;;;4.07;2.80;;;7.40;99.90;;;;;;5088299;28;20430;-41
2022/02/06 07:56:20;;;;;;;5.43;2.47;;;7.50;99.90;;;;;;5088152;28;20200;-40
2022/02/06 07:58:45;;;;;;;4.17;2.63;;;7.40;99.90;;;;;;5087837;28;20423;-43
2022/02/06 08:01:11;;;;;;;3.93;2.40;;;7.20;99.90;;;;;;5087732;28;20921;-41
2022/02/06 08:03:37;;;;;;;5.57;2.60;;;7.40;99.90;;;;;;5081706;28;20686;-41
2022/02/06 08:06:02;;;;;;;2.80;2.20;;;7.40;99.90;;;;;;5088086;28;20620;-41
2022/02/06 08:08:28;;;;;;;5.20;2.60;;;7.40;99.90;;;;;;5085016;28;20241;-40
2022/02/06 08:10:59;;;;;;;4.97;2.50;;;7.40;99.90;;;;;;5081165;28;20263;-41
2022/02/06 08:13:38;;;;;;;4.83;2.27;;;7.60;99.90;;;;;;5083099;28;20253;-40
2022/02/06 08:16:04;;;;;;;3.83;2.37;;;7.30;99.90;;;;;;5086632;28;20430;-40
2022/02/06 08:18:30;;;;;;;2.70;1.90;;;7.30;99.90;;;;;;5078947;28;20466;-41
2022/02/06 08:20:56;;;;;;;1.93;1.83;;;7.50;99.90;;;;;;5084536;28;20458;-40
2022/02/06 08:23:21;;;;;;;4.20;1.73;;;7.40;99.90;;;;;;5085593;28;20188;-42
2022/02/06 08:25:47;;;;;;;5.17;1.90;;;7.60;99.90;;;;;;5086052;28;20249;-41
2022/02/06 08:28:13;;;;;;;4.40;2.27;;;7.50;99.90;;;;;;5087349;28;20277;-40
2022/02/06 08:30:39;;;;;;;2.80;1.87;;;7.50;99.90;;;;;;5086771;28;20208;-41
2022/02/06 08:33:08;;;;;;;2.40;1.87;;;7.30;99.90;;;;;;5081569;28;20188;-40
2022/02/06 08:35:34;;;;;;;3.47;1.90;;;7.70;99.90;;;;;;5083925;28;20424;-39
2022/02/06 08:37:59;;;;;;;6.90;1.70;;;7.30;99.90;;;;;;5086669;28;20519;-39
2022/02/06 08:40:25;;;;;;;3.00;1.60;;;7.50;99.90;;;;;;5085814;28;20615;-40
2022/02/06 08:42:51;;;;;;;3.00;1.70;;;7.50;99.90;;;;;;5086775;28;20204;-40
2022/02/06 08:45:17;;;;;;;2.27;1.97;;;7.40;99.90;;;;;;5079424;28;20201;-40
2022/02/06 08:47:44;;;;;;;3.47;1.60;;;7.50;99.90;;;;;;5075058;28;20215;-40
2022/02/06 08:50:11;;;;;;;3.13;1.30;;;7.50;99.90;;;;;;5083912;28;20430;-42
2022/02/06 08:52:37;;;;;;;2.23;1.43;;;7.40;99.90;;;;;;5086040;28;20465;-41
2022/02/06 08:55:06;;;;;;;1.80;1.30;;;7.40;99.90;;;;;;5086371;28;20839;-39
2022/02/06 08:57:32;;;;;;;2.70;1.60;;;7.70;99.90;;;;;;5086256;28;20199;-40
2022/02/06 08:59:57;;;;;;;5.40;2.20;;;7.50;99.90;;;;;;5085790;28;20422;-40
2022/02/06 09:02:24;;;;;;;2.33;1.50;;;7.50;99.90;;;;;;5083791;28;20220;-42
2022/02/06 09:04:49;;;;;;;1.67;1.53;;;7.70;99.90;;;;;;5078746;28;20267;-40
2022/02/06 09:07:16;;;;;;;2.17;1.10;;;7.80;99.90;;;;;;5083853;28;20534;-40
2022/02/06 09:09:47;;;;;;;1.50;1.40;;;7.60;99.90;;;;;;5071668;28;20195;-42
2022/02/06 09:12:13;;;;;;;1.70;1.30;;;7.70;99.90;;;;;;5081272;28;20481;-40
2022/02/06 09:14:40;;;;;;;5.03;1.70;;;7.40;99.90;;;;;;5084591;28;20418;-42
2022/02/06 09:17:06;;;;;;;3.77;2.00;;;7.80;99.90;;;;;;5072456;28;20450;-41
2022/02/06 09:19:34;;;;;;;1.70;1.60;;;7.70;99.90;;;;;;5077796;28;20477;-40
2022/02/06 09:22:00;;;;;;;1.70;1.60;;;7.80;99.90;;;;;;5089732;28;20180;-40
2022/02/06 09:24:26;;;;;;;1.83;1.47;;;7.80;99.90;;;;;;5090089;28;20438;-40
2022/02/06 09:26:51;;;;;;;2.30;1.80;;;7.70;99.90;;;;;;5090413;28;21054;-40
2022/02/06 09:29:17;;;;;;;2.47;1.40;;;7.50;99.90;;;;;;5089391;28;20207;-41
2022/02/06 09:31:48;;;;;;;2.57;1.63;;;7.70;99.90;;;;;;5088985;28;20219;-41
2022/02/06 09:36:39;;;;;;;1.60;1.37;;;7.60;99.90;;;;;;5089476;28;20476;-39
2022/02/06 09:39:09;;;;;;;1.73;1.33;;;7.80;99.90;;;;;;5076472;28;20553;-41
2022/02/06 09:41:37;;;;;;;1.10;1.00;;;7.60;99.90;;;;;;5087401;28;20188;-40
2022/02/06 09:44:05;;;;;;;1.63;1.20;;;7.80;99.90;;;;;;5089266;28;20422;-40
2022/02/06 09:46:32;;;;;;;1.70;1.20;;;7.60;99.90;;;;;;5089136;28;20981;-40
2022/02/06 09:48:57;;;;;;;2.37;1.30;;;7.80;99.90;;;;;;5084342;28;20439;-40
2022/02/06 09:51:24;;;;;;;3.53;1.10;;;8.00;99.90;;;;;;5086244;28;20462;-41
2022/02/06 09:53:49;;;;;;;2.73;1.23;;;7.60;99.90;;;;;;5088846;28;20196;-41
2022/02/06 09:56:16;;;;;;;1.10;1.00;;;7.80;99.90;;;;;;5089298;28;20821;-40
2022/02/06 10:01:14;;;;;;;1.40;1.10;;;8.00;99.90;;;;;;5088746;28;20456;-40
2022/02/06 10:03:46;;;;;;;1.87;1.10;;;7.80;99.90;;;;;;5079635;28;20430;-40
2022/02/06 10:06:21;;;;;;;1.00;0.90;;;7.90;99.90;;;;;;5088395;28;20495;-41
2022/02/06 10:08:48;;;;;;;0.77;0.70;;;8.00;99.90;;;;;;5085462;28;20432;-41
2022/02/06 10:11:16;;;;;;;1.40;0.77;;;7.90;99.90;;;;;;5088249;28;20462;-40
2022/02/06 10:13:43;;;;;;;2.07;1.20;;;7.70;99.90;;;;;;5088988;28;20419;-40
2022/02/06 10:16:12;;;;;;;1.07;0.97;;;7.60;99.90;;;;;;5089172;28;20426;-42
2022/02/06 10:18:39;;;;;;;2.00;1.10;;;7.60;99.90;;;;;;5082289;28;20453;-41
2022/02/06 10:21:06;;;;;;;2.17;1.23;;;7.80;99.90;;;;;;5083321;28;20426;-40
2022/02/06 10:23:48;;;;;;;2.23;1.10;;;7.60;99.90;;;;;;5087238;28;20437;-40
2022/02/06 10:26:25;;;;;;;1.43;1.33;;;7.80;99.90;;;;;;5083225;28;20684;-41
2022/02/06 10:29:24;;;;;;;2.20;1.00;;;7.80;99.90;;;;;;5081535;28;20422;-40
2022/02/06 10:31:55;;;;;;;1.50;1.30;;;7.60;99.90;;;;;;5082287;28;20473;-41
2022/02/06 10:34:24;;;;;;;1.20;1.10;;;7.60;99.90;;;;;;5073821;28;20443;-40
2022/02/06 10:37:08;;;;;;;0.90;0.90;;;7.50;99.90;;;;;;5088768;28;20415;-42
2022/02/06 10:39:37;;;;;;;1.40;1.17;;;7.50;99.90;;;;;;5086891;28;20521;-40
2022/02/06 10:42:03;;;;;;;1.27;1.17;;;7.80;99.90;;;;;;5088485;28;20782;-41
2022/02/06 10:44:30;;;;;;;1.37;1.27;;;7.60;99.90;;;;;;5088202;28;20940;-40
2022/02/06 10:46:58;;;;;;;1.03;0.93;;;7.60;99.90;;;;;;5088337;28;20436;-40
2022/02/06 10:49:25;;;;;;;1.07;0.83;;;7.80;99.90;;;;;;5077792;28;20473;-40
2022/02/06 10:52:02;;;;;;;0.83;0.83;;;7.40;99.90;;;;;;5081723;28;20583;-42
2022/02/06 10:54:27;;;;;;;1.00;0.90;;;7.40;99.90;;;;;;5086561;28;20422;-39
2022/02/06 10:57:06;;;;;;;1.20;0.80;;;7.50;99.90;;;;;;5087316;28;20446;-40
2022/02/06 10:59:48;;;;;;;1.10;1.00;;;7.50;99.90;;;;;;5086988;28;20189;-41
2022/02/06 11:02:29;;;;;;;0.80;0.60;;;7.40;99.90;;;;;;5086033;28;20463;-40
2022/02/06 11:05:19;;;;;;;0.73;0.60;;;7.50;99.90;;;;;;5084068;28;20532;-40
2022/02/06 11:08:00;;;;;;;1.33;0.70;;;7.30;99.90;;;;;;5086206;28;20496;-40
2022/02/06 11:10:30;;;;;;;0.60;0.50;;;7.60;99.90;;;;;;5074621;28;20438;-40
2022/02/06 11:13:05;;;;;;;0.70;0.70;;;7.60;99.90;;;;;;5086742;28;20479;-41
2022/02/06 11:15:34;;;;;;;0.87;0.87;;;7.70;99.90;;;;;;5092121;28;20437;-40
2022/02/06 11:18:22;;;;;;;0.77;0.77;;;7.40;99.90;;;;;;5087304;28;20515;-40
2022/02/06 11:21:08;;;;;;;1.00;0.87;;;7.50;99.90;;;;;;5079409;28;20438;-40
2022/02/06 11:23:37;;;;;;;1.33;1.00;;;7.70;99.90;;;;;;5084989;28;20431;-39
2022/02/06 11:26:05;;;;;;;0.80;0.80;;;7.40;99.90;;;;;;5087019;28;20966;-40
2022/02/06 11:28:31;;;;;;;0.83;0.83;;;7.20;99.90;;;;;;5087049;28;20461;-40
2022/02/06 11:30:57;;;;;;;1.20;0.90;;;7.40;99.90;;;;;;5087060;28;20620;-40
2022/02/06 11:33:23;;;;;;;1.53;0.83;;;7.40;99.90;;;;;;5083999;28;20983;-41
2022/02/06 11:35:57;;;;;;;1.33;0.90;;;7.40;99.90;;;;;;5080798;28;20681;-40
2022/02/06 11:44:38;;;;;;;0.90;0.90;;;7.30;99.90;;;;;;5087207;28;20798;-42
2022/02/06 11:47:18;;;;;;;0.67;0.67;;;7.40;99.90;;;;;;5086991;28;20422;-41
2022/02/06 11:49:48;;;;;;;0.90;0.90;;;7.30;99.90;;;;;;5074060;28;20430;-39
2022/02/06 11:52:15;;;;;;;0.80;0.80;;;7.40;99.90;;;;;;5082724;28;20458;-40
2022/02/06 11:54:54;;;;;;;1.10;0.93;;;7.40;99.90;;;;;;5085145;28;20430;-40
2022/02/06 11:57:26;;;;;;;1.00;0.97;;;7.60;99.90;;;;;;5081178;28;20449;-39
2022/02/06 12:00:06;;;;;;;0.93;0.70;;;7.40;99.90;;;;;;5082351;28;20429;-40
2022/02/06 12:02:34;;;;;;;1.57;0.60;;;7.50;99.90;;;;;;5084921;28;20418;-39
2022/02/06 12:05:08;;;;;;;1.73;1.00;;;7.30;99.90;;;;;;5081669;28;20444;-40
2022/02/06 12:07:52;;;;;;;0.93;0.67;;;7.30;99.90;;;;;;5086167;28;20414;-40
2022/02/06 12:10:40;;;;;;;0.70;0.70;;;7.40;99.90;;;;;;5078988;28;20414;-40
2022/02/06 12:13:24;;;;;;;1.10;0.50;;;7.50;99.90;;;;;;5083717;28;20418;-40
2022/02/06 12:15:52;;;;;;;0.60;0.60;;;7.20;99.90;;;;;;5089361;28;20442;-40
2022/02/06 12:18:31;;;;;;;0.83;0.70;;;7.30;99.90;;;;;;5082583;28;20434;-41
2022/02/06 12:21:14;;;;;;;1.27;0.80;;;7.10;99.90;;;;;;5074562;28;20485;-40
2022/02/06 12:24:00;;;;;;;0.80;0.60;;;7.30;99.90;;;;;;5081331;28;20473;-42
2022/02/06 12:26:31;;;;;;;1.13;1.00;;;7.30;99.90;;;;;;5087155;28;20423;-40
2022/02/06 12:29:05;;;;;;;1.20;0.70;;;7.50;99.90;;;;;;5084418;28;20611;-40
2022/02/06 12:31:33;;;;;;;0.70;0.70;;;7.30;99.90;;;;;;5080042;28;20458;-40
2022/02/06 12:39:24;;;;;;;1.10;0.80;;;7.40;99.90;;;;;;5082723;28;20505;-40
2022/02/06 12:41:51;;;;;;;1.10;0.80;;;7.50;99.90;;;;;;5083160;28;20521;-39
2022/02/06 12:44:18;;;;;;;1.20;0.70;;;7.40;99.90;;;;;;5086049;28;20414;-42
2022/02/06 12:46:46;;;;;;;0.80;0.80;;;7.70;99.90;;;;;;5086188;28;20471;-39
2022/02/06 12:49:15;;;;;;;1.67;0.90;;;7.60;99.90;;;;;;5079273;28;20447;-40
2022/02/06 12:51:41;;;;;;;2.00;0.80;;;7.70;99.90;;;;;;5077672;28;20469;-39
2022/02/06 12:54:12;;;;;;;1.00;0.80;;;7.50;99.90;;;;;;5085140;28;20435;-39
2022/02/06 12:56:40;;;;;;;1.00;0.83;;;7.70;99.90;;;;;;5090170;28;20596;-39
2022/02/06 12:59:06;;;;;;;2.20;0.80;;;7.40;99.90;;;;;;5088924;28;20465;-39
2022/02/06 13:01:42;;;;;;;1.10;0.70;;;7.70;99.90;;;;;;5089587;28;20431;-39
2022/02/06 13:04:11;;;;;;;1.60;1.03;;;7.70;99.90;;;;;;5086942;28;20438;-39
2022/02/06 13:06:38;;;;;;;1.07;0.70;;;7.70;99.90;;;;;;5080514;28;20797;-39
2022/02/06 13:09:10;;;;;;;0.70;0.70;;;7.90;99.90;;;;;;5089818;28;20481;-39
2022/02/06 13:12:03;;;;;;;1.43;0.77;;;7.90;99.90;;;;;;5090587;28;20461;-39
2022/02/06 13:17:33;;;;;;;0.60;0.60;;;7.80;99.90;;;;;;5096777;28;20426;-41
2022/02/06 13:25:31;;;;;;;1.00;0.90;;;8.10;99.90;;;;;;5087308;28;20430;-41
2022/02/06 13:28:23;;;;;;;1.93;1.50;;;8.00;99.90;;;;;;5087905;28;20959;-41
2022/02/06 13:31:18;;;;;;;1.83;0.70;;;8.10;99.90;;;;;;5076439;28;20843;-39
2022/02/06 13:36:37;;;;;;;0.63;0.63;;;7.90;99.90;;;;;;5081620;28;20421;-40
2022/02/06 13:39:10;;;;;;;0.80;0.50;;;7.90;99.90;;;;;;5086988;28;20475;-39
2022/02/06 13:41:36;;;;;;;0.60;0.60;;;8.00;99.90;;;;;;5089568;28;20414;-40
2022/02/06 13:44:04;;;;;;;0.50;0.50;;;7.40;99.90;;;;;;5088496;28;20433;-42
2022/02/06 13:46:35;;;;;;;1.60;0.60;;;7.40;99.90;;;;;;5088696;28;20428;-40
2022/02/06 13:49:02;;;;;;;2.00;0.83;;;7.40;99.90;;;;;;5088634;28;20438;-41
2022/02/06 13:51:42;;;;;;;1.27;0.70;;;7.30;99.90;;;;;;5084509;28;20466;-40
2022/02/06 13:54:08;;;;;;;0.70;0.50;;;7.10;99.90;;;;;;5086457;28;20446;-40
2022/02/06 13:56:35;;;;;;;0.90;0.60;;;7.20;99.90;;;;;;5088932;28;20485;-39
2022/02/06 13:59:09;;;;;;;0.90;0.63;;;7.20;99.90;;;;;;5082797;28;20483;-39
2022/02/06 14:01:39;;;;;;;0.80;0.60;;;7.20;99.90;;;;;;5084650;28;20784;-39
2022/02/06 14:04:07;;;;;;;0.60;0.60;;;7.30;99.90;;;;;;5088690;28;20794;-39
2022/02/06 14:06:46;;;;;;;1.40;0.70;;;7.30;99.90;;;;;;5082519;28;20515;-41
2022/02/06 14:12:02;;;;;;;1.67;1.17;;;7.30;99.90;;;;;;5088226;28;20460;-39
2022/02/06 14:14:29;;;;;;;1.90;1.07;;;7.30;99.90;;;;;;5088590;28;20413;-40
2022/02/06 14:16:57;;;;;;;2.03;1.10;;;7.30;99.90;;;;;;5087941;28;20830;-40
2022/02/06 14:19:44;;;;;;;1.90;1.30;;;7.40;99.90;;;;;;5086321;28;20607;-40
2022/02/06 14:22:14;;;;;;;1.40;1.27;;;7.50;99.90;;;;;;5083699;28;20466;-39
2022/02/06 14:24:51;;;;;;;3.10;1.30;;;7.20;99.90;;;;;;5081316;28;20438;-40
2022/02/06 14:27:35;;;;;;;2.23;1.60;;;7.40;99.90;;;;;;5088232;28;20924;-39
2022/02/06 14:30:09;;;;;;;1.50;1.40;;;7.40;99.90;;;;;;5087936;28;20693;-39
2022/02/06 14:32:35;;;;;;;1.90;1.50;;;7.10;99.90;;;;;;5089137;28;20602;-40
2022/02/06 14:35:13;;;;;;;2.37;2.17;;;7.10;99.90;;;;;;5083945;28;20428;-39
2022/02/06 14:37:53;;;;;;;3.00;2.67;;;7.00;99.90;;;;;;5080977;28;20434;-39
2022/02/06 14:41:06;;;;;;;5.13;2.57;;;7.10;99.90;;;;;;5086441;28;20414;-41
2022/02/06 14:43:32;;;;;;;2.33;2.13;;;7.10;99.90;;;;;;5087487;28;20429;-39
2022/02/06 14:45:58;;;;;;;2.00;1.87;;;7.10;99.90;;;;;;5085095;28;20429;-40
2022/02/06 14:48:27;;;;;;;2.43;2.00;;;7.10;99.90;;;;;;5086102;28;20419;-40
2022/02/06 14:50:53;;;;;;;3.00;1.60;;;7.10;99.90;;;;;;5079968;28;20208;-40
2022/02/06 14:53:21;;;;;;;2.80;1.67;;;7.00;99.90;;;;;;5087133;28;20426;-39
2022/02/06 14:55:49;;;;;;;2.10;1.50;;;7.10;99.90;;;;;;5085362;28;20514;-40
2022/02/06 14:58:15;;;;;;;1.30;1.10;;;7.20;99.90;;;;;;5084689;28;20981;-43
2022/02/06 15:00:42;;;;;;;1.70;1.20;;;7.20;99.90;;;;;;5086668;28;20445;-39
2022/02/06 15:03:08;;;;;;;4.60;1.80;;;7.20;99.90;;;;;;5086555;28;20434;-40
2022/02/06 15:05:35;;;;;;;1.90;1.20;;;7.10;99.90;;;;;;5080442;28;20854;-39
2022/02/06 15:08:02;;;;;;;5.40;1.63;;;7.20;99.90;;;;;;5083083;28;20422;-40
2022/02/06 15:10:28;;;;;;;21.93;12.60;;;7.20;99.90;;;;;;5083926;28;20426;-39
2022/02/06 15:12:55;;;;;;;5.90;4.70;;;7.10;99.90;;;;;;5086562;28;20477;-39
2022/02/06 15:15:21;;;;;;;5.10;3.47;;;7.10;99.90;;;;;;5081865;28;20944;-40
2022/02/06 15:17:50;;;;;;;4.27;2.97;;;7.10;99.90;;;;;;5085560;28;20513;-39
2022/02/06 15:20:16;;;;;;;2.70;2.30;;;7.00;99.90;;;;;;5081317;28;20940;-39
2022/02/06 15:22:41;;;;;;;3.93;1.60;;;7.10;99.90;;;;;;5085678;28;20555;-40
2022/02/06 15:25:07;;;;;;;4.40;2.90;;;7.10;99.90;;;;;;5086651;28;20180;-39
2022/02/06 15:27:33;;;;;;;5.23;2.70;;;7.10;99.90;;;;;;5086764;28;20282;-40
2022/02/06 15:29:58;;;;;;;3.30;2.67;;;7.10;99.90;;;;;;5085198;28;20430;-39
2022/02/06 15:32:25;;;;;;;3.10;2.80;;;7.00;99.90;;;;;;5086952;28;20291;-39
2022/02/06 15:34:51;;;;;;;6.57;3.60;;;7.00;99.90;;;;;;5084788;28;20398;-40
2022/02/06 15:37:18;;;;;;;4.33;3.40;;;6.90;99.90;;;;;;5082159;28;21088;-40
2022/02/06 15:39:44;;;;;;;4.73;4.10;;;6.90;99.90;;;;;;5083816;28;20427;-39